createdAt,value
2022-11-14T00:22:24.387Z,7.02
2022-11-14T00:24:50.917Z,7.06
2022-11-14T00:27:17.532Z,7.22
2022-11-14T00:29:44.146Z,7.11
2022-11-14T00:34:59.547Z,6.96
2022-11-14T00:37:27.172Z,7.27
2022-11-14T00:39:53.723Z,7.11
2022-11-14T00:42:20.285Z,7.21
2022-11-14T00:44:46.886Z,7.54
2022-11-14T00:47:13.439Z,7.30
2022-11-14T00:50:04.358Z,7.28
2022-11-14T00:52:51.108Z,6.73
2022-11-14T00:57:52.875Z,7.46
2022-11-14T01:00:19.562Z,7.44
2022-11-14T01:02:46.106Z,7.14
2022-11-14T01:05:12.749Z,6.53
2022-11-14T01:10:14.660Z,7.37
2022-11-14T01:15:43.644Z,7.22
2022-11-14T01:26:55.525Z,7.11
2022-11-14T01:29:22.193Z,7.32
2022-11-14T01:39:58.463Z,7.60
2022-11-14T01:42:27.385Z,7.33
2022-11-14T01:47:42.556Z,7.39
2022-11-14T01:50:10.572Z,7.85
2022-11-14T01:52:59.151Z,7.30
2022-11-14T01:55:27.401Z,7.17
2022-11-14T01:57:54.030Z,6.79
2022-11-14T02:00:20.746Z,6.95
2022-11-14T02:02:48.076Z,6.81
2022-11-14T02:05:17.881Z,6.67
2022-11-14T02:07:44.679Z,7.17
2022-11-14T02:10:17.772Z,6.71
2022-11-14T02:12:44.727Z,6.95
2022-11-14T02:15:12.086Z,7.60
2022-11-14T02:17:38.706Z,7.47
2022-11-14T02:20:28.614Z,7.51
2022-11-14T02:22:55.575Z,7.47
2022-11-14T02:25:22.119Z,6.94
2022-11-14T02:27:49.606Z,6.89
2022-11-14T02:30:19.750Z,7.44
2022-11-14T02:36:10.455Z,7.37
2022-11-14T02:38:58.593Z,7.61
2022-11-14T02:41:25.312Z,7.61
2022-11-14T02:43:51.849Z,7.02
2022-11-14T02:46:22.875Z,6.84
2022-11-14T02:49:04.747Z,7.18
2022-11-14T02:51:31.271Z,7.16
2022-11-14T02:53:57.863Z,6.99
2022-11-14T02:56:24.633Z,7.21
2022-11-14T02:58:51.210Z,7.24
2022-11-14T03:01:21.797Z,7.91
2022-11-14T03:04:06.971Z,7.68
2022-11-14T03:06:44.313Z,7.75
2022-11-14T03:09:10.864Z,7.32
2022-11-14T03:11:38.932Z,7.61
2022-11-14T03:14:05.578Z,7.45
2022-11-14T03:16:32.190Z,7.40
2022-11-14T03:18:58.701Z,7.34
2022-11-14T03:22:09.111Z,7.98
2022-11-14T03:25:06.866Z,7.37
2022-11-14T03:27:33.409Z,7.34
2022-11-14T03:29:59.989Z,7.40
2022-11-14T03:32:26.708Z,7.49
2022-11-14T03:34:53.306Z,7.71
2022-11-14T03:37:19.887Z,7.67
2022-11-14T03:39:46.414Z,7.60
2022-11-14T03:44:54.363Z,7.35
2022-11-14T03:47:20.979Z,6.82
2022-11-14T03:49:47.507Z,6.53
2022-11-14T03:52:14.079Z,6.30
2022-11-14T03:54:40.610Z,6.42
2022-11-14T03:57:19.443Z,6.51
2022-11-14T04:00:10.991Z,6.41
2022-11-14T04:02:37.593Z,5.84
2022-11-14T04:05:04.431Z,6.24
2022-11-14T04:07:31.069Z,6.16
2022-11-14T04:09:57.637Z,6.24
2022-11-14T04:12:24.331Z,6.74
2022-11-14T04:14:50.879Z,6.21
2022-11-14T04:19:59.588Z,6.58
2022-11-14T04:28:03.601Z,6.70
2022-11-14T04:30:48.602Z,6.65
2022-11-14T04:49:47.399Z,7.05
2022-11-14T04:52:13.934Z,6.96
2022-11-14T04:54:40.540Z,6.89
2022-11-14T04:57:07.099Z,6.83
2022-11-14T04:59:33.737Z,6.72
2022-11-14T05:02:00.302Z,6.55
2022-11-14T05:04:26.905Z,6.25
2022-11-14T05:06:53.546Z,6.97
2022-11-14T05:09:20.112Z,6.89
2022-11-14T05:11:46.707Z,6.84
2022-11-14T05:14:32.321Z,6.42
2022-11-14T05:16:59.136Z,6.74
2022-11-14T05:19:25.692Z,5.93
2022-11-14T05:21:52.289Z,6.55
2022-11-14T05:24:19.893Z,6.60
2022-11-14T05:27:23.443Z,6.60
2022-11-14T05:30:12.224Z,6.52
2022-11-14T05:32:39.037Z,5.62
2022-11-14T05:35:06.231Z,5.89
2022-11-14T05:37:34.478Z,5.95
2022-11-14T05:40:01.101Z,5.92
2022-11-14T05:42:28.335Z,5.86
2022-11-14T05:44:54.870Z,5.89
2022-11-14T05:47:21.491Z,5.55
2022-11-14T05:49:48.052Z,6.24
2022-11-14T05:52:14.740Z,6.23
2022-11-14T05:54:41.298Z,6.59
2022-11-14T05:57:08.030Z,6.34
2022-11-14T05:59:34.631Z,6.62
2022-11-14T06:02:01.264Z,6.31
2022-11-14T06:04:28.028Z,6.39
2022-11-14T06:06:54.665Z,6.86
2022-11-14T06:09:21.396Z,6.61
2022-11-14T06:11:47.940Z,7.26
2022-11-14T06:14:14.679Z,7.31
2022-11-14T06:16:41.332Z,7.62
2022-11-14T06:19:07.879Z,7.72
2022-11-14T06:21:34.499Z,7.55
2022-11-14T06:24:01.015Z,7.47
2022-11-14T06:26:32.848Z,7.35
2022-11-14T06:29:00.602Z,7.41
2022-11-14T06:31:27.853Z,7.63
2022-11-14T06:33:54.860Z,7.47
2022-11-14T06:36:21.427Z,7.06
2022-11-14T06:38:48.066Z,7.15
2022-11-14T06:41:19.841Z,7.20
2022-11-14T06:43:49.868Z,7.45
2022-11-14T06:46:19.544Z,7.44
2022-11-14T06:48:47.735Z,7.84
2022-11-14T06:51:16.301Z,8.02
2022-11-14T06:53:43.497Z,7.76
2022-11-14T06:56:12.250Z,7.82
2022-11-14T06:58:44.996Z,7.72
2022-11-14T07:01:17.350Z,7.59
2022-11-14T07:03:44.684Z,8.09
2022-11-14T07:06:13.896Z,8.17
2022-11-14T07:08:40.667Z,8.01
2022-11-14T07:11:09.719Z,8.10
2022-11-14T07:13:36.770Z,8.37
2022-11-14T07:32:40.552Z,7.30
2022-11-14T07:35:07.426Z,7.88
2022-11-14T07:37:33.998Z,7.83
2022-11-14T07:40:00.682Z,7.91
2022-11-14T07:42:29.880Z,7.90
2022-11-14T07:44:56.445Z,8.30
2022-11-14T07:47:23.060Z,8.52
2022-11-14T07:49:49.606Z,8.70
2022-11-14T07:52:16.192Z,8.44
2022-11-14T08:02:31.655Z,8.68
2022-11-14T08:10:24.468Z,9.00
2022-11-14T08:13:24.838Z,9.14
2022-11-14T08:18:21.259Z,7.97
2022-11-14T08:20:47.979Z,8.60
2022-11-14T08:23:15.551Z,8.03
2022-11-14T08:25:42.874Z,8.25
2022-11-14T08:28:09.969Z,8.28
2022-11-14T08:31:17.295Z,8.63
2022-11-14T08:34:05.837Z,8.38
2022-11-14T08:36:32.448Z,8.64
2022-11-14T08:39:02.011Z,9.18
2022-11-14T08:41:28.995Z,9.37
2022-11-14T08:43:55.607Z,9.12
2022-11-14T08:46:22.166Z,8.96
2022-11-14T08:48:48.690Z,9.09
2022-11-14T08:51:15.266Z,8.85
2022-11-14T08:53:41.814Z,9.12
2022-11-14T08:56:10.713Z,9.60
2022-11-14T08:58:37.418Z,9.16
2022-11-14T09:01:06.712Z,8.72
2022-11-14T09:03:34.427Z,8.11
2022-11-14T09:06:02.083Z,8.15
2022-11-14T09:08:29.691Z,9.12
2022-11-14T09:11:04.825Z,9.23
2022-11-14T09:13:33.961Z,9.46
2022-11-14T09:16:00.596Z,9.56
2022-11-14T09:18:27.367Z,9.82
2022-11-14T09:21:00.150Z,10.09
2022-11-14T09:23:26.918Z,9.26
2022-11-14T09:25:54.860Z,9.36
2022-11-14T09:28:21.553Z,9.70
2022-11-14T09:30:48.113Z,9.94
2022-11-14T09:33:14.757Z,9.90
2022-11-14T09:35:42.585Z,10.33
2022-11-14T09:38:11.835Z,10.17
2022-11-14T09:41:06.219Z,10.44
2022-11-14T09:44:02.209Z,10.33
2022-11-14T09:46:42.117Z,10.64
2022-11-14T09:49:18.776Z,10.28
2022-11-14T09:51:51.503Z,10.72
2022-11-14T09:54:22.983Z,10.66
2022-11-14T09:56:50.207Z,10.16
2022-11-14T09:59:17.242Z,10.25
2022-11-14T10:01:57.663Z,10.10
2022-11-14T10:04:28.683Z,9.97
2022-11-14T10:07:27.754Z,10.10
2022-11-14T10:10:09.888Z,10.26
2022-11-14T10:12:56.201Z,10.71
2022-11-14T10:15:41.057Z,10.25
2022-11-14T10:18:29.679Z,10.63
2022-11-14T10:21:18.641Z,10.97
2022-11-14T10:23:47.861Z,10.39
2022-11-14T10:26:26.207Z,10.37
2022-11-14T10:29:14.342Z,10.31
2022-11-14T10:32:10.683Z,10.82
2022-11-14T10:34:47.912Z,10.94
2022-11-14T10:37:40.368Z,11.24
2022-11-14T10:40:20.155Z,10.73
2022-11-14T10:42:51.115Z,11.10
2022-11-14T10:45:33.036Z,11.73
2022-11-14T10:48:04.123Z,11.79
2022-11-14T10:50:46.419Z,12.21
2022-11-14T10:53:34.113Z,11.92
2022-11-14T10:56:05.071Z,11.73
2022-11-14T10:58:51.365Z,11.98
2022-11-14T11:05:04.769Z,12.38
2022-11-14T11:15:52.212Z,12.98
2022-11-14T11:18:28.716Z,13.37
2022-11-14T11:21:08.086Z,12.90
2022-11-14T11:23:35.310Z,12.84
2022-11-14T11:26:36.603Z,12.77
2022-11-14T11:29:10.380Z,12.56
2022-11-14T11:31:57.949Z,12.58
2022-11-14T11:34:29.231Z,12.93
2022-11-14T11:37:02.958Z,12.67
2022-11-14T11:39:33.287Z,13.16
2022-11-14T11:42:10.125Z,12.60
2022-11-14T11:44:46.263Z,13.04
2022-11-14T11:47:16.927Z,13.22
2022-11-14T11:49:54.305Z,13.30
2022-11-14T11:52:31.119Z,13.62
2022-11-14T11:55:09.636Z,13.09
2022-11-14T11:57:43.524Z,13.30
2022-11-14T12:00:18.789Z,13.52
2022-11-14T12:02:50.100Z,13.99
2022-11-14T12:05:36.943Z,14.30
2022-11-14T12:08:07.530Z,14.18
2022-11-14T12:10:38.693Z,13.87
2022-11-14T12:13:05.143Z,14.19
2022-11-14T12:15:50.351Z,13.95
2022-11-14T12:18:36.361Z,14.02
2022-11-14T12:21:13.239Z,14.45
2022-11-14T12:23:51.889Z,14.60
2022-11-14T12:26:36.778Z,13.93
2022-11-14T12:29:43.847Z,14.46
2022-11-14T12:42:49.815Z,14.07
2022-11-14T12:45:41.321Z,14.07
2022-11-14T12:48:20.963Z,13.50
2022-11-14T12:50:47.919Z,13.99
2022-11-14T12:53:38.646Z,14.09
2022-11-14T12:56:31.417Z,13.91
2022-11-14T12:59:10.224Z,14.21
2022-11-14T13:01:44.396Z,14.09
2022-11-14T13:04:14.054Z,14.07
2022-11-14T13:06:55.909Z,13.57
2022-11-14T13:09:28.691Z,12.99
2022-11-14T13:12:14.389Z,13.45
2022-11-14T13:15:48.600Z,14.00
2022-11-14T13:18:38.328Z,13.85
2022-11-14T13:21:46.085Z,13.65
2022-11-14T13:24:16.289Z,13.70
2022-11-14T13:26:48.599Z,14.08
2022-11-14T13:29:39.757Z,13.89
2022-11-14T13:32:11.315Z,14.16
2022-11-14T13:34:46.405Z,14.04
2022-11-14T13:37:42.553Z,13.26
2022-11-14T13:40:19.259Z,13.09
2022-11-14T13:43:07.165Z,12.86
2022-11-14T13:46:01.678Z,13.37
2022-11-14T13:48:28.139Z,12.90
2022-11-14T13:51:15.600Z,13.62
2022-11-14T13:53:49.552Z,13.33
2022-11-14T13:56:24.919Z,13.46
2022-11-14T13:59:10.303Z,12.98
2022-11-14T14:02:29.445Z,13.70
2022-11-14T14:05:04.730Z,13.99
2022-11-14T14:07:55.277Z,12.58
2022-11-14T14:10:38.143Z,13.07
2022-11-14T14:13:13.879Z,12.94
2022-11-14T14:16:12.641Z,12.83
2022-11-14T14:19:01.516Z,13.09
2022-11-14T14:21:49.968Z,13.09
2022-11-14T14:24:44.053Z,13.40
2022-11-14T14:27:16.292Z,13.20
2022-11-14T14:30:11.673Z,12.84
2022-11-14T14:32:38.331Z,13.30
2022-11-14T14:35:40.456Z,12.90
2022-11-14T14:38:12.828Z,12.80
2022-11-14T14:40:42.009Z,13.04
2022-11-14T14:43:21.596Z,12.51
2022-11-14T14:45:54.616Z,12.72
2022-11-14T14:48:31.915Z,12.81
2022-11-14T14:51:00.040Z,12.41
2022-11-14T14:53:30.129Z,12.44
2022-11-14T14:55:58.269Z,12.60
2022-11-14T14:58:30.675Z,12.74
2022-11-14T15:01:03.885Z,12.60
2022-11-14T15:03:38.577Z,12.60
2022-11-14T15:06:18.109Z,12.04
2022-11-14T15:09:03.001Z,11.50
2022-11-14T15:11:32.748Z,12.21
2022-11-14T15:14:02.050Z,12.44
2022-11-14T15:16:29.830Z,12.33
2022-11-14T15:18:58.193Z,12.47
2022-11-14T15:21:27.333Z,12.41
2022-11-14T15:24:15.794Z,12.15
2022-11-14T15:26:46.590Z,12.24
2022-11-14T15:29:27.322Z,12.25
2022-11-14T15:32:00.139Z,12.19
2022-11-14T15:34:36.641Z,12.27
2022-11-14T15:37:16.503Z,12.23
2022-11-14T15:39:44.447Z,12.00
2022-11-14T15:42:29.111Z,12.09
2022-11-14T15:44:56.485Z,12.05
2022-11-14T15:47:25.127Z,11.99
2022-11-14T15:50:01.096Z,11.98
2022-11-14T15:52:38.924Z,11.97
2022-11-14T15:55:17.433Z,11.93
2022-11-14T15:57:48.406Z,11.87
2022-11-14T16:00:23.015Z,11.46
2022-11-14T16:03:11.814Z,11.41
2022-11-14T16:05:38.350Z,11.49
2022-11-14T16:08:05.230Z,11.55
2022-11-14T16:10:31.766Z,11.54
2022-11-14T16:12:58.325Z,11.54
2022-11-14T16:15:24.969Z,11.56
2022-11-14T16:17:51.539Z,11.48
2022-11-14T16:20:27.289Z,11.38
2022-11-14T16:22:55.938Z,11.33
2022-11-14T16:25:30.116Z,11.28
2022-11-14T16:27:56.959Z,11.11
2022-11-14T16:30:25.565Z,10.85
2022-11-14T16:32:52.870Z,10.68
2022-11-14T16:35:20.756Z,10.78
2022-11-14T16:37:47.667Z,10.71
2022-11-14T16:40:17.386Z,10.72
2022-11-14T16:42:44.425Z,10.69
2022-11-14T16:45:11.279Z,10.74
2022-11-14T16:47:39.386Z,10.61
2022-11-14T16:50:06.696Z,10.46
2022-11-14T16:52:33.371Z,10.40
2022-11-14T16:54:59.946Z,10.44
2022-11-14T16:57:26.572Z,10.03
2022-11-14T16:59:53.138Z,10.29
2022-11-14T17:02:19.789Z,10.34
2022-11-14T17:04:46.904Z,10.36
2022-11-14T17:07:16.750Z,10.18
2022-11-14T17:09:46.767Z,10.28
2022-11-14T17:12:13.356Z,10.31
2022-11-14T17:14:40.017Z,10.33
2022-11-14T17:17:06.590Z,10.20
2022-11-14T17:19:33.162Z,9.85
2022-11-14T17:21:59.688Z,9.95
2022-11-14T17:24:31.140Z,9.58
2022-11-14T17:26:58.180Z,9.75
2022-11-14T17:29:24.712Z,9.87
2022-11-14T17:31:51.282Z,9.34
2022-11-14T17:34:17.913Z,8.87
2022-11-14T17:36:44.604Z,9.53
2022-11-14T17:39:11.136Z,9.77
2022-11-14T17:41:38.691Z,9.90
2022-11-14T17:44:05.352Z,9.86
2022-11-14T17:46:32.269Z,9.78
2022-11-14T17:48:59.270Z,9.31
2022-11-14T17:51:25.798Z,9.17
2022-11-14T17:53:52.749Z,9.34
2022-11-14T17:56:21.942Z,8.90
2022-11-14T17:58:53.086Z,9.36
2022-11-14T18:01:22.376Z,9.61
2022-11-14T18:03:50.032Z,9.10
2022-11-14T18:06:20.114Z,9.37
2022-11-14T18:08:47.554Z,9.42
2022-11-14T18:11:16.184Z,9.55
2022-11-14T18:13:43.536Z,9.06
2022-11-14T18:16:18.164Z,9.20
2022-11-14T18:18:45.370Z,9.20
2022-11-14T18:21:17.374Z,9.20
2022-11-14T18:23:44.926Z,9.08
2022-11-14T18:26:17.102Z,9.28
2022-11-14T18:28:43.973Z,9.20
2022-11-14T18:31:11.898Z,9.19
2022-11-14T18:33:39.386Z,9.28
2022-11-14T18:36:10.307Z,9.05
2022-11-14T18:38:37.139Z,9.15
2022-11-14T18:41:08.151Z,9.30
2022-11-14T18:43:35.205Z,9.21
2022-11-14T18:46:09.129Z,9.19
2022-11-14T18:48:37.568Z,9.28
2022-11-14T18:51:06.816Z,9.33
2022-11-14T18:53:35.033Z,9.29
2022-11-14T18:56:26.946Z,9.24
2022-11-14T18:58:55.536Z,9.12
2022-11-14T19:01:26.153Z,9.22
2022-11-14T19:03:56.934Z,9.23
2022-11-14T19:06:23.860Z,8.98
2022-11-14T19:08:51.112Z,8.98
2022-11-14T19:11:36.723Z,8.68
2022-11-14T19:14:05.623Z,8.35
2022-11-14T19:16:33.791Z,8.27
2022-11-14T19:19:01.146Z,8.61
2022-11-14T19:21:28.498Z,8.60
2022-11-14T19:23:55.263Z,8.84
2022-11-14T19:26:22.840Z,8.82
2022-11-14T19:28:49.454Z,9.06
2022-11-14T19:31:16.782Z,9.10
2022-11-14T19:56:40.395Z,8.76
2022-11-14T20:04:58.354Z,8.85
2022-11-14T20:07:25.075Z,8.90
2022-11-14T20:09:51.755Z,8.96
2022-11-14T20:12:18.391Z,9.00
2022-11-14T20:14:45.001Z,9.01
2022-11-14T20:17:12.630Z,9.00
2022-11-14T20:19:39.251Z,8.89
2022-11-14T20:22:06.639Z,8.79
2022-11-14T20:25:30.829Z,8.90
2022-11-14T20:28:17.337Z,8.92
2022-11-14T20:30:44.047Z,8.94
2022-11-14T20:33:11.089Z,8.85
2022-11-14T20:35:38.647Z,8.82
2022-11-14T20:38:05.980Z,8.69
2022-11-14T20:40:33.069Z,8.55
2022-11-14T20:43:00.287Z,8.66
2022-11-14T20:45:28.255Z,8.83
2022-11-14T20:47:55.265Z,8.68
2022-11-14T20:50:22.155Z,8.63
2022-11-14T20:52:48.865Z,8.78
2022-11-14T20:55:15.905Z,8.67
2022-11-14T20:57:45.512Z,8.53
2022-11-14T21:00:12.503Z,8.64
2022-11-14T21:02:39.109Z,8.49
2022-11-14T21:05:06.161Z,8.64
2022-11-14T21:07:32.829Z,8.54
2022-11-14T21:10:17.770Z,8.55
2022-11-14T21:13:04.338Z,8.60
2022-11-14T21:15:33.690Z,7.96
2022-11-14T21:18:00.413Z,8.03
2022-11-14T21:20:27.071Z,8.38
2022-11-14T21:22:53.629Z,8.25
2022-11-14T21:25:20.155Z,8.46
2022-11-14T21:28:08.646Z,8.39
2022-11-14T21:30:35.251Z,7.93
2022-11-14T21:33:01.752Z,8.23
2022-11-14T21:35:31.848Z,8.33
2022-11-14T21:41:50.123Z,7.83
2022-11-14T21:44:27.162Z,7.20
2022-11-14T21:46:53.703Z,7.44
2022-11-14T21:49:20.316Z,6.86
2022-11-14T21:51:48.435Z,7.31
2022-11-14T21:54:15.139Z,7.56
2022-11-14T21:56:41.761Z,7.34
2022-11-14T22:07:14.369Z,8.04
2022-11-14T22:09:45.357Z,7.52
2022-11-14T22:12:30.615Z,7.22
2022-11-14T22:15:43.095Z,7.21
2022-11-14T22:18:29.662Z,7.80
2022-11-14T22:20:56.364Z,7.77
2022-11-14T22:23:22.907Z,7.72
2022-11-14T22:25:56.039Z,7.27
2022-11-14T22:28:31.623Z,7.02
2022-11-14T22:31:05.135Z,6.50
2022-11-14T22:33:36.373Z,6.99
2022-11-14T22:36:07.986Z,7.55
2022-11-14T22:38:36.152Z,7.76
2022-11-14T22:41:04.288Z,7.68
2022-11-14T22:43:33.249Z,7.89
2022-11-14T22:46:00.969Z,8.09
2022-11-14T22:48:30.929Z,7.95
2022-11-14T22:51:03.483Z,8.15
2022-11-14T22:53:32.824Z,7.80
2022-11-14T22:56:00.404Z,7.57
2022-11-14T22:58:31.302Z,7.59
2022-11-14T23:01:01.170Z,8.01
2022-11-14T23:03:28.646Z,7.92
2022-11-14T23:05:55.214Z,8.13
2022-11-14T23:08:22.363Z,8.40
2022-11-14T23:10:49.155Z,8.48
2022-11-14T23:13:15.783Z,8.54
2022-11-14T23:15:47.884Z,8.58
2022-11-14T23:18:14.774Z,8.55
2022-11-14T23:20:41.373Z,8.15
2022-11-14T23:23:07.937Z,8.52
2022-11-14T23:25:36.857Z,8.44
2022-11-14T23:28:18.743Z,8.57
2022-11-14T23:30:45.282Z,8.28
2022-11-14T23:33:11.809Z,7.77
2022-11-14T23:35:38.339Z,7.89
2022-11-14T23:41:55.895Z,8.31
2022-11-14T23:44:22.565Z,7.94
2022-11-14T23:46:49.123Z,8.22
2022-11-14T23:49:15.720Z,8.14
2022-11-14T23:51:42.304Z,8.48
2022-11-14T23:54:08.973Z,8.63
2022-11-14T23:56:35.494Z,8.49
2022-11-14T23:59:02.068Z,8.31
